Skip Navigation LinksHome page > Weather > Current weather Skip Navigation Links

Current Weather

Bom Jesus Da Lapa, Brazil

For information only: do not use for flight planning or navigation.
Latest weather
Observation time Tuesday, December 1, 2015 6:00 PM BRST
Local time Tuesday, December 1, 2015 9:40 PM BRST
Flight conditions Visual Meteorological Conditions
Wind direction Southeast (140°)
Wind speed 6 mph
Visibility 6.2 mi.
Sky condition
Ceiling unlimited
Cloud layer few clouds 3,000 ft.
Temperature 102°F
Dewpoint 48°F
Altimeter 29.85 in.Hg
Derived measurements
Relative humidity 16%
Heat index 102°F
Density altitude 4386 ft.
METAR SBLP 012000Z 14005KT 9999 FEW030 39/09 Q1011


Location code

InnerDrive.Weather 4.0.5722.1 Release CLR 4.0.30319.34014
Copyright ©2015 Inner Drive Technology. All rights reserved. Portions Copyright ©1986-2015 David Braverman.

Find weather

Site navigation

Skip Navigation Links

Place info

Page info

PayPal - The safer, easier way to pay online!

Return home.

Copyright ©2015 Inner Drive Technology. Purveyors of fine, hand-crafted computer software. Page printed 2015-12-01T23:40:59 UTC.